Time;durP1;ratioP1;P1;durP2;ratioP2;P2;SDS_P1;SDS_P2;PMS_P1;PMS_P2;Temp;Humidity;BMP_temperature;BMP_pressure;BME280_temperature;BME280_humidity;BME280_pressure;Samples;Min_cycle;Max_cycle;Signal;HPM_P1;HPM_P2
2022/08/18 00:01:24;;;;;;;2.93;2.43;;;21.90;97.30;;;;;;5078878;28;20867;-80
2022/08/18 00:03:51;;;;;;;4.57;2.70;;;21.90;97.30;;;;;;5079157;28;20416;-80
2022/08/18 00:06:17;;;;;;;4.40;2.40;;;21.90;97.30;;;;;;5078879;28;20585;-79
2022/08/18 00:08:43;;;;;;;2.10;1.93;;;21.90;97.30;;;;;;5077936;28;20960;-80
2022/08/18 00:11:09;;;;;;;2.93;2.23;;;21.90;97.30;;;;;;5078749;28;20409;-80
2022/08/18 00:13:35;;;;;;;3.63;2.57;;;21.80;97.30;;;;;;5097364;28;20175;-80
2022/08/18 00:16:00;;;;;;;5.40;2.53;;;21.80;97.30;;;;;;5096858;28;20178;-80
2022/08/18 00:18:26;;;;;;;5.00;2.63;;;21.80;97.30;;;;;;5079563;28;20460;-80
2022/08/18 00:20:52;;;;;;;2.80;2.63;;;21.80;97.30;;;;;;5078725;28;20178;-80
2022/08/18 00:23:18;;;;;;;4.53;3.17;;;21.80;97.30;;;;;;5079451;28;20189;-80
2022/08/18 00:25:44;;;;;;;3.13;2.93;;;21.80;97.30;;;;;;5079738;28;20211;-80
2022/08/18 00:28:11;;;;;;;5.00;2.53;;;21.70;97.30;;;;;;5079087;28;20182;-80
2022/08/18 00:30:37;;;;;;;5.80;2.80;;;21.70;97.30;;;;;;5079350;28;20500;-80
2022/08/18 00:33:03;;;;;;;2.07;1.93;;;21.70;97.30;;;;;;5098129;28;20416;-80
2022/08/18 00:35:33;;;;;;;3.40;2.60;;;21.70;97.30;;;;;;5079953;28;20416;-80
2022/08/18 00:38:01;;;;;;;8.60;3.70;;;21.60;97.30;;;;;;5079513;28;20198;-80
2022/08/18 00:40:32;;;;;;;3.10;2.47;;;21.60;97.30;;;;;;5079818;28;20440;-80
2022/08/18 00:43:01;;;;;;;9.50;3.13;;;21.50;97.30;;;;;;5079756;28;20776;-80
2022/08/18 00:45:36;;;;;;;5.43;2.87;;;21.50;97.30;;;;;;5079140;28;20452;-80
2022/08/18 00:48:07;;;;;;;2.73;2.57;;;21.40;97.30;;;;;;5079814;28;20420;-80
2022/08/18 00:50:37;;;;;;;5.40;3.00;;;21.40;97.30;;;;;;5078284;28;20984;-80
2022/08/18 00:53:09;;;;;;;4.33;2.00;;;21.40;97.30;;;;;;5080111;28;20415;-80
2022/08/18 00:55:38;;;;;;;5.23;3.17;;;21.40;97.30;;;;;;5079244;28;20421;-79
2022/08/18 00:58:08;;;;;;;4.00;3.10;;;21.40;97.30;;;;;;5092771;28;20443;-78
2022/08/18 01:00:35;;;;;;;4.10;2.20;;;21.30;97.30;;;;;;5075066;28;20432;-80
2022/08/18 01:03:05;;;;;;;5.00;2.70;;;21.30;97.30;;;;;;5075432;28;20413;-79
2022/08/18 01:05:40;;;;;;;5.10;3.43;;;21.30;97.30;;;;;;5076017;28;20610;-79
2022/08/18 01:08:10;;;;;;;3.03;2.30;;;21.30;97.30;;;;;;5091556;22;20506;-89
2022/08/18 01:10:38;;;;;;;4.40;3.90;;;21.30;97.30;;;;;;5075016;28;20956;-89
2022/08/18 01:13:03;;;;;;;4.67;4.40;;;21.30;97.30;;;;;;5093114;28;20396;-89
2022/08/18 01:15:29;;;;;;;4.03;3.03;;;21.30;97.30;;;;;;5074758;28;20419;-88
2022/08/18 01:23:34;;;;;;;2.80;2.20;;;21.10;97.30;;;;;;5093223;28;20605;-89
2022/08/18 01:26:02;;;;;;;3.80;2.50;;;21.00;97.30;;;;;;5074590;28;21143;-89
2022/08/18 01:28:34;;;;;;;3.27;2.20;;;21.00;97.30;;;;;;5074142;28;20452;-88
2022/08/18 01:31:01;;;;;;;4.90;2.30;;;20.90;97.30;;;;;;5074559;28;20409;-88
2022/08/18 01:33:35;;;;;;;3.17;2.70;;;20.90;97.30;;;;;;5092633;28;20498;-88
2022/08/18 01:36:11;;;;;;;3.17;1.93;;;20.90;97.30;;;;;;5074764;28;21039;-88
2022/08/18 01:38:37;;;;;;;4.47;2.73;;;20.90;97.30;;;;;;5074483;28;20463;-88
2022/08/18 01:41:03;;;;;;;5.37;2.90;;;20.80;97.30;;;;;;5074510;28;20785;-88
2022/08/18 01:43:29;;;;;;;6.10;3.00;;;20.80;97.30;;;;;;5074505;28;20500;-89
2022/08/18 01:45:56;;;;;;;3.90;2.70;;;20.80;97.30;;;;;;5074560;28;20444;-88
2022/08/18 01:48:22;;;;;;;14.90;2.87;;;20.80;97.30;;;;;;5074517;28;20178;-88
2022/08/18 01:50:48;;;;;;;3.77;2.70;;;20.70;97.30;;;;;;5074575;28;20420;-88
2022/08/18 01:53:14;;;;;;;5.97;3.07;;;20.70;97.30;;;;;;5074559;28;20528;-89
2022/08/18 01:55:43;;;;;;;3.53;2.60;;;20.70;97.30;;;;;;5074483;28;20419;-88
2022/08/18 01:58:09;;;;;;;3.00;2.47;;;20.70;97.30;;;;;;5074261;28;20194;-88
2022/08/18 02:00:35;;;;;;;3.93;3.47;;;20.70;97.30;;;;;;5092425;28;20420;-88
2022/08/18 02:03:07;;;;;;;3.83;3.43;;;20.60;97.30;;;;;;5074377;28;20416;-88
2022/08/18 02:05:36;;;;;;;6.00;3.00;;;20.50;97.30;;;;;;5074502;28;20249;-89
2022/08/18 02:08:03;;;;;;;4.20;3.43;;;20.50;97.30;;;;;;5074031;28;20563;-88
2022/08/18 02:10:29;;;;;;;3.50;3.10;;;20.50;97.30;;;;;;5074336;28;20464;-88
2022/08/18 02:12:55;;;;;;;3.80;2.60;;;20.40;97.30;;;;;;5074472;28;20940;-88
2022/08/18 02:15:20;;;;;;;3.83;2.90;;;20.40;97.30;;;;;;5074172;28;20178;-88
2022/08/18 02:17:46;;;;;;;4.10;2.23;;;20.40;97.30;;;;;;5074235;28;20254;-88
2022/08/18 02:20:14;;;;;;;4.27;2.60;;;20.30;97.30;;;;;;5074318;28;20202;-88
2022/08/18 02:22:43;;;;;;;5.67;3.83;;;20.30;97.30;;;;;;5074007;28;20405;-89
2022/08/18 02:25:09;;;;;;;4.50;3.20;;;20.20;97.30;;;;;;5074129;28;20424;-89
2022/08/18 02:27:36;;;;;;;3.87;3.13;;;20.20;97.30;;;;;;5073852;28;20420;-88
2022/08/18 02:30:05;;;;;;;4.30;3.73;;;20.20;97.30;;;;;;5074251;28;20531;-87
2022/08/18 02:32:32;;;;;;;4.03;2.67;;;20.20;97.30;;;;;;5074799;28;20419;-87
2022/08/18 02:34:58;;;;;;;4.53;2.73;;;20.10;97.30;;;;;;5077396;28;20416;-87
2022/08/18 02:37:23;;;;;;;3.03;2.30;;;20.10;97.30;;;;;;5077607;28;20943;-88
2022/08/18 02:39:49;;;;;;;3.87;2.93;;;20.10;97.30;;;;;;5077591;28;20428;-88
2022/08/18 02:42:15;;;;;;;3.10;2.80;;;20.10;97.30;;;;;;5068758;28;20594;-88
2022/08/18 02:44:40;;;;;;;3.83;3.10;;;20.00;97.30;;;;;;5057430;28;20573;-88
2022/08/18 02:47:06;;;;;;;3.60;3.20;;;20.00;97.30;;;;;;5068520;28;20280;-88
2022/08/18 02:49:32;;;;;;;3.97;3.10;;;20.00;97.30;;;;;;5089391;28;20183;-88
2022/08/18 02:51:58;;;;;;;4.33;2.63;;;20.00;97.30;;;;;;5074069;28;20167;-88
2022/08/18 02:54:24;;;;;;;4.53;3.40;;;20.10;97.30;;;;;;5074166;28;20300;-89
2022/08/18 02:56:51;;;;;;;5.30;2.77;;;20.10;97.30;;;;;;5073770;28;20207;-89
2022/08/18 02:59:23;;;;;;;4.00;3.13;;;20.10;97.30;;;;;;5074023;28;20456;-89
2022/08/18 03:01:51;;;;;;;3.83;2.70;;;20.10;97.30;;;;;;5073953;28;20401;-89
2022/08/18 03:04:20;;;;;;;3.73;2.50;;;20.10;97.30;;;;;;5073798;28;20462;-89
2022/08/18 03:06:45;;;;;;;4.87;3.43;;;20.00;97.30;;;;;;5073962;28;20926;-89
2022/08/18 03:09:14;;;;;;;3.70;2.40;;;20.00;97.30;;;;;;5073471;28;20477;-89
2022/08/18 03:11:40;;;;;;;4.30;2.90;;;20.00;97.30;;;;;;5073630;28;20179;-88
2022/08/18 03:14:06;;;;;;;5.13;2.80;;;20.00;97.30;;;;;;5073668;28;20930;-89
2022/08/18 03:16:33;;;;;;;3.37;2.73;;;19.90;97.30;;;;;;5073560;28;20417;-86
2022/08/18 03:19:00;;;;;;;4.90;3.13;;;19.90;97.30;;;;;;5073464;28;20993;-88
2022/08/18 03:21:27;;;;;;;5.37;3.90;;;19.90;97.30;;;;;;5073624;28;20850;-89
2022/08/18 03:23:55;;;;;;;5.30;2.60;;;20.00;97.30;;;;;;5073493;28;20413;-88
2022/08/18 03:26:22;;;;;;;3.43;2.83;;;20.00;97.30;;;;;;5074773;28;20423;-88
2022/08/18 03:28:49;;;;;;;1.80;1.80;;;20.00;97.30;;;;;;5073482;28;20476;-88
2022/08/18 03:31:16;;;;;;;6.30;4.13;;;20.00;97.30;;;;;;5073760;28;20759;-89
2022/08/18 03:33:43;;;;;;;3.47;3.20;;;20.00;97.30;;;;;;5073266;28;20432;-89
2022/08/18 03:36:12;;;;;;;34.83;3.40;;;20.00;97.30;;;;;;5073650;28;20856;-87
2022/08/18 03:38:39;;;;;;;2.80;2.60;;;20.00;97.30;;;;;;5073369;28;20460;-87
2022/08/18 03:41:07;;;;;;;9.03;3.80;;;20.00;97.30;;;;;;5073303;28;20504;-87
2022/08/18 03:43:33;;;;;;;6.50;2.43;;;20.00;97.30;;;;;;5072911;28;20418;-87
2022/08/18 03:46:05;;;;;;;6.63;3.60;;;20.00;97.30;;;;;;5073031;28;20760;-87
2022/08/18 03:48:34;;;;;;;4.93;3.13;;;20.00;97.30;;;;;;5073171;28;20179;-88
2022/08/18 03:51:05;;;;;;;3.70;2.20;;;19.90;97.30;;;;;;5072974;28;20930;-87
2022/08/18 03:53:32;;;;;;;4.30;2.37;;;19.90;97.30;;;;;;5068348;28;20503;-88
2022/08/18 03:55:57;;;;;;;3.87;2.67;;;19.90;97.30;;;;;;5056151;28;20922;-87
2022/08/18 03:58:23;;;;;;;4.93;2.07;;;20.00;97.30;;;;;;5064998;28;20448;-86
2022/08/18 04:00:49;;;;;;;4.57;3.30;;;20.00;97.30;;;;;;5075947;28;20181;-86
2022/08/18 04:03:14;;;;;;;3.23;2.80;;;20.00;97.30;;;;;;5063938;28;20197;-87
2022/08/18 04:05:40;;;;;;;6.47;2.77;;;20.00;97.30;;;;;;5066188;28;20178;-87
2022/08/18 04:08:05;;;;;;;5.97;3.23;;;20.00;97.30;;;;;;5067690;28;20690;-87
2022/08/18 04:10:32;;;;;;;4.07;2.20;;;20.00;97.30;;;;;;5059510;28;20687;-87
2022/08/18 04:12:57;;;;;;;3.57;2.40;;;20.00;97.30;;;;;;5083466;28;20177;-87
2022/08/18 04:15:23;;;;;;;4.40;2.83;;;19.90;97.30;;;;;;5096313;28;20557;-87
2022/08/18 04:17:49;;;;;;;3.37;2.10;;;19.90;97.30;;;;;;5096320;28;20253;-87
2022/08/18 04:20:15;;;;;;;5.13;2.70;;;19.90;97.30;;;;;;5096594;28;20622;-88
2022/08/18 04:22:41;;;;;;;6.40;3.10;;;19.90;97.30;;;;;;5096176;28;20212;-87
2022/08/18 04:25:08;;;;;;;4.70;3.13;;;19.90;97.30;;;;;;5087719;28;20408;-87
2022/08/18 04:27:35;;;;;;;3.77;2.80;;;19.90;97.30;;;;;;5096208;28;20416;-86
2022/08/18 04:30:00;;;;;;;7.57;3.13;;;19.90;97.30;;;;;;5096020;28;20559;-89
2022/08/18 04:32:29;;;;;;;4.10;3.07;;;19.90;97.30;;;;;;5114763;28;20976;-89
2022/08/18 04:34:54;;;;;;;2.40;2.03;;;19.90;97.30;;;;;;5096102;28;20178;-88
2022/08/18 04:37:20;;;;;;;3.73;2.50;;;19.90;97.30;;;;;;5095911;28;20418;-88
2022/08/18 04:39:46;;;;;;;3.83;2.87;;;19.90;97.30;;;;;;5096233;28;20280;-89
2022/08/18 04:42:12;;;;;;;5.20;3.23;;;20.00;97.30;;;;;;5096588;28;20185;-88
2022/08/18 04:44:38;;;;;;;3.87;2.83;;;20.00;97.30;;;;;;5114397;28;20170;-87
2022/08/18 04:47:06;;;;;;;2.63;2.13;;;20.00;97.30;;;;;;5095845;28;20182;-88
2022/08/18 04:49:32;;;;;;;4.83;3.80;;;20.00;97.30;;;;;;5095781;28;20194;-88
2022/08/18 04:54:42;;;;;;;6.00;2.77;;;20.00;97.30;;;;;;5114012;28;20737;-88
2022/08/18 04:57:17;;;;;;;4.17;2.73;;;20.00;97.30;;;;;;5095193;28;20407;-89
2022/08/18 04:59:45;;;;;;;2.77;2.40;;;20.10;97.30;;;;;;5095734;28;20284;-88
2022/08/18 05:02:22;;;;;;;3.93;2.83;;;20.10;97.30;;;;;;5095393;28;20422;-88
2022/08/18 05:04:47;;;;;;;5.33;5.03;;;20.20;97.30;;;;;;5095823;28;20427;-88
2022/08/18 05:07:17;;;;;;;5.70;3.30;;;20.20;97.30;;;;;;5095427;28;20423;-88
2022/08/18 05:09:43;;;;;;;8.43;2.77;;;20.20;97.30;;;;;;5094901;28;20193;-89
2022/08/18 05:12:12;;;;;;;4.37;2.97;;;20.30;97.30;;;;;;5092623;28;20411;-90
2022/08/18 05:14:43;;;;;;;5.67;3.93;;;20.30;97.30;;;;;;5093611;28;20180;-88
2022/08/18 05:17:09;;;;;;;3.20;3.00;;;20.40;97.30;;;;;;5093424;28;20958;-89
2022/08/18 05:19:35;;;;;;;3.00;2.10;;;20.50;97.30;;;;;;5111787;28;20438;-90
2022/08/18 05:22:01;;;;;;;2.70;2.47;;;20.50;97.30;;;;;;5093630;28;20407;-89
2022/08/18 05:24:28;;;;;;;4.90;2.50;;;20.60;97.30;;;;;;5093532;28;20185;-89
2022/08/18 05:26:54;;;;;;;4.27;2.80;;;20.70;97.30;;;;;;5094070;28;20434;-89
2022/08/18 05:29:20;;;;;;;3.33;2.30;;;20.70;97.30;;;;;;5093341;28;20434;-89
2022/08/18 05:31:51;;;;;;;3.00;2.13;;;20.80;97.30;;;;;;5093947;28;20174;-88
2022/08/18 05:34:21;;;;;;;3.40;2.50;;;20.90;97.30;;;;;;5093586;28;20912;-89
2022/08/18 05:37:06;;;;;;;5.80;3.77;;;20.90;97.30;;;;;;5093783;28;20504;-88
2022/08/18 05:39:42;;;;;;;9.30;4.53;;;21.00;97.30;;;;;;5111656;28;20510;-89
2022/08/18 05:42:13;;;;;;;6.00;3.60;;;21.00;97.30;;;;;;5094008;28;20418;-89
2022/08/18 05:44:43;;;;;;;5.60;3.47;;;21.10;97.30;;;;;;5093969;28;20415;-89
2022/08/18 05:47:23;;;;;;;8.10;5.93;;;21.10;97.30;;;;;;5093296;28;20415;-89
2022/08/18 05:49:50;;;;;;;4.00;2.90;;;21.20;97.30;;;;;;5093823;28;20427;-89
2022/08/18 05:52:27;;;;;;;3.47;2.50;;;21.20;97.30;;;;;;5093422;28;20415;-89
2022/08/18 05:57:50;;;;;;;22.77;2.00;;;21.30;97.00;;;;;;5111604;28;20463;-89
2022/08/18 06:00:17;;;;;;;5.17;3.13;;;21.30;96.70;;;;;;5093301;28;20435;-88
2022/08/18 06:03:05;;;;;;;6.40;3.50;;;21.40;96.70;;;;;;5093029;28;20415;-88
2022/08/18 06:05:39;;;;;;;4.77;3.23;;;21.40;96.40;;;;;;5092369;28;20403;-88
2022/08/18 06:08:09;;;;;;;5.40;4.00;;;21.50;96.30;;;;;;5074473;28;20512;-88
2022/08/18 06:10:36;;;;;;;5.40;2.90;;;21.50;96.20;;;;;;5076726;28;20971;-88
2022/08/18 06:13:06;;;;;;;6.23;3.47;;;21.60;96.00;;;;;;5076860;28;20476;-89
2022/08/18 06:15:50;;;;;;;3.97;3.17;;;21.70;95.90;;;;;;5076451;28;20465;-88
2022/08/18 06:18:22;;;;;;;4.30;3.20;;;21.70;95.90;;;;;;5076531;28;20459;-88
2022/08/18 06:20:59;;;;;;;2.83;2.40;;;21.80;95.70;;;;;;5076720;28;20492;-87
2022/08/18 06:23:41;;;;;;;3.27;2.50;;;21.90;95.90;;;;;;5094325;28;20404;-88
2022/08/18 06:26:23;;;;;;;3.80;2.50;;;21.90;95.90;;;;;;5076546;28;20422;-88
2022/08/18 06:29:23;;;;;;;9.67;3.00;;;22.00;95.70;;;;;;5076411;28;20440;-88
2022/08/18 06:32:14;;;;;;;3.30;2.70;;;22.10;95.70;;;;;;5094497;28;20440;-86
2022/08/18 06:35:24;;;;;;;3.40;2.57;;;22.10;95.60;;;;;;5076324;28;20401;-85
2022/08/18 06:41:08;;;;;;;5.77;3.33;;;22.30;95.30;;;;;;5094490;28;20443;-86
2022/08/18 06:43:37;;;;;;;6.47;3.23;;;22.40;95.10;;;;;;5076418;28;20485;-86
2022/08/18 06:46:11;;;;;;;4.80;3.20;;;22.40;95.10;;;;;;5076180;28;20416;-86
2022/08/18 06:48:55;;;;;;;3.93;3.10;;;22.50;94.70;;;;;;5075745;28;20840;-86
2022/08/18 06:51:26;;;;;;;3.80;2.77;;;22.50;94.80;;;;;;5076087;28;20413;-85
2022/08/18 06:54:00;;;;;;;4.10;2.80;;;22.60;94.90;;;;;;5075789;28;20936;-86
2022/08/18 06:56:37;;;;;;;4.67;2.70;;;22.70;94.80;;;;;;5075868;28;20429;-86
2022/08/18 06:59:35;;;;;;;4.00;3.23;;;22.80;95.10;;;;;;5075387;28;20463;-86
2022/08/18 07:02:44;;;;;;;2.27;2.07;;;22.90;94.10;;;;;;5063788;28;20424;-86
2022/08/18 07:05:26;;;;;;;4.20;2.80;;;23.00;94.00;;;;;;5062121;28;20420;-87
2022/08/18 07:08:14;;;;;;;4.17;2.70;;;23.10;94.20;;;;;;5068243;23;20499;-89
2022/08/18 07:10:44;;;;;;;3.97;3.00;;;23.20;93.80;;;;;;5068385;28;20785;-87
2022/08/18 07:13:17;;;;;;;4.20;2.97;;;23.40;93.80;;;;;;5093013;28;20396;-87
2022/08/18 07:15:44;;;;;;;4.83;3.07;;;23.50;93.30;;;;;;5075148;28;20401;-88
2022/08/18 07:18:11;;;;;;;5.30;2.97;;;23.60;93.20;;;;;;5074678;28;20460;-88
2022/08/18 07:20:52;;;;;;;3.20;2.70;;;23.70;93.10;;;;;;5074633;28;20420;-88
2022/08/18 07:23:32;;;;;;;2.93;2.20;;;23.80;92.40;;;;;;5094574;28;20412;-88
2022/08/18 07:26:15;;;;;;;2.20;1.87;;;23.80;92.30;;;;;;5099686;28;20424;-88
2022/08/18 07:28:44;;;;;;;3.43;3.13;;;23.80;92.60;;;;;;5098704;28;20432;-88
2022/08/18 07:31:19;;;;;;;2.73;2.53;;;23.90;92.50;;;;;;5075948;28;20652;-88
2022/08/18 07:34:12;;;;;;;4.53;3.00;;;23.90;92.40;;;;;;5074966;28;20421;-88
2022/08/18 07:36:52;;;;;;;3.20;2.50;;;23.90;92.30;;;;;;5067100;28;20423;-88
2022/08/18 07:39:37;;;;;;;7.30;4.03;;;23.90;92.40;;;;;;5074691;28;20464;-88
2022/08/18 07:42:03;;;;;;;6.70;3.37;;;23.90;92.40;;;;;;5074541;28;20432;-88
2022/08/18 07:44:43;;;;;;;4.40;2.50;;;23.90;92.30;;;;;;5074348;28;20409;-87
2022/08/18 07:47:30;;;;;;;8.53;3.63;;;23.90;92.50;;;;;;5074493;28;20175;-89
2022/08/18 07:49:57;;;;;;;3.47;3.27;;;23.90;92.50;;;;;;5074267;28;20412;-90
2022/08/18 07:53:09;;;;;;;6.27;3.33;;;24.00;92.50;;;;;;5074667;28;20423;-91
2022/08/18 07:55:35;;;;;;;6.30;3.43;;;24.00;92.50;;;;;;5070517;28;20424;-89
2022/08/18 07:58:24;;;;;;;4.80;3.40;;;24.00;92.50;;;;;;5092202;28;20842;-90
2022/08/18 08:01:21;;;;;;;5.20;3.70;;;24.00;92.40;;;;;;5073976;28;20423;-90
2022/08/18 08:03:57;;;;;;;5.47;3.97;;;24.00;92.80;;;;;;5074126;28;20937;-90
2022/08/18 08:06:54;;;;;;;5.27;3.03;;;23.90;92.80;;;;;;5065925;28;20834;-90
2022/08/18 08:09:35;;;;;;;3.70;3.20;;;24.00;93.10;;;;;;5027895;28;20835;-90
2022/08/18 08:12:22;;;;;;;7.47;4.97;;;24.00;93.00;;;;;;5050606;28;20426;-90
2022/08/18 08:14:59;;;;;;;10.67;5.17;;;24.00;93.40;;;;;;5050521;28;20425;-90
2022/08/18 08:17:37;;;;;;;7.37;4.50;;;24.00;93.60;;;;;;5050679;28;20413;-90
2022/08/18 08:20:13;;;;;;;6.27;3.57;;;24.00;93.70;;;;;;5050230;28;20493;-90
2022/08/18 08:23:13;;;;;;;6.23;4.83;;;24.10;93.80;;;;;;5050448;28;20564;-90
2022/08/18 08:26:18;;;;;;;5.77;4.30;;;24.10;93.70;;;;;;5050594;28;20399;-90
2022/08/18 08:28:46;;;;;;;5.03;4.00;;;24.10;94.10;;;;;;5032867;28;20439;-90
2022/08/18 08:31:31;;;;;;;8.47;4.00;;;24.10;94.10;;;;;;5050383;28;20418;-90
2022/08/18 08:34:19;;;;;;;15.43;5.73;;;24.10;94.20;;;;;;5050412;28;20442;-90
2022/08/18 08:36:46;;;;;;;5.40;4.00;;;24.20;94.30;;;;;;5050271;28;20433;-90
2022/08/18 08:39:25;;;;;;;9.40;4.83;;;24.20;93.80;;;;;;5049858;28;20454;-89
2022/08/18 08:41:59;;;;;;;8.30;4.90;;;24.20;93.70;;;;;;5050025;28;20433;-90
2022/08/18 08:44:31;;;;;;;4.83;3.60;;;24.30;93.60;;;;;;5051165;28;20413;-90
2022/08/18 08:47:22;;;;;;;8.50;4.60;;;24.40;93.50;;;;;;5050063;28;20770;-90
2022/08/18 08:49:55;;;;;;;9.40;6.03;;;24.40;93.40;;;;;;5050110;28;20943;-90
2022/08/18 08:52:26;;;;;;;7.40;5.13;;;24.50;93.20;;;;;;5051224;28;20410;-90
2022/08/18 08:54:58;;;;;;;15.10;6.30;;;24.50;93.20;;;;;;5033239;28;20419;-90
2022/08/18 08:57:41;;;;;;;7.47;4.00;;;24.50;93.40;;;;;;5049630;28;20991;-90
2022/08/18 09:00:14;;;;;;;10.30;4.00;;;24.60;93.30;;;;;;5049652;28;20417;-90
2022/08/18 09:02:59;;;;;;;7.07;3.80;;;24.60;93.20;;;;;;5049943;28;20422;-90
2022/08/18 09:05:35;;;;;;;5.77;3.50;;;24.60;92.90;;;;;;5033058;28;20494;-90
2022/08/18 09:08:31;;;;;;;6.00;4.57;;;24.60;92.50;;;;;;5033872;28;20481;-90
2022/08/18 09:11:05;;;;;;;15.20;4.50;;;24.60;92.70;;;;;;5049509;28;20429;-90
2022/08/18 09:13:59;;;;;;;7.60;5.53;;;24.60;92.80;;;;;;5049705;28;20422;-91
2022/08/18 09:16:41;;;;;;;8.73;4.20;;;24.60;93.00;;;;;;5049439;28;20410;-90
2022/08/18 09:19:46;;;;;;;17.30;6.20;;;24.70;92.90;;;;;;5049934;28;20470;-90
2022/08/18 09:22:44;;;;;;;8.53;5.73;;;24.70;93.10;;;;;;5049795;28;21008;-90
2022/08/18 09:25:43;;;;;;;8.47;4.33;;;24.80;93.00;;;;;;5049473;28;20978;-90
2022/08/18 09:28:14;;;;;;;7.03;4.43;;;24.80;92.20;;;;;;5049585;28;20525;-90
2022/08/18 09:31:00;;;;;;;6.53;3.83;;;24.80;92.20;;;;;;5049457;28;20410;-90
2022/08/18 09:33:49;;;;;;;8.67;5.53;;;24.90;92.40;;;;;;5049984;28;20438;-90
2022/08/18 09:36:30;;;;;;;14.33;5.63;;;25.00;92.30;;;;;;5049474;28;20426;-90
2022/08/18 09:41:59;;;;;;;3.50;3.33;;;25.10;92.10;;;;;;5050662;28;20501;-90
2022/08/18 09:44:46;;;;;;;9.20;4.50;;;25.20;92.40;;;;;;5053584;28;20423;-90
2022/08/18 09:47:32;;;;;;;10.73;3.70;;;25.30;92.00;;;;;;5053334;28;20879;-90
2022/08/18 09:50:04;;;;;;;6.33;3.10;;;25.30;91.50;;;;;;5036567;28;20766;-89
2022/08/18 09:52:32;;;;;;;8.80;4.90;;;25.30;91.10;;;;;;5053376;28;20418;-90
2022/08/18 09:54:58;;;;;;;7.37;3.47;;;25.30;91.80;;;;;;5053136;28;20504;-90
2022/08/18 09:57:27;;;;;;;6.30;4.23;;;25.40;92.10;;;;;;5053157;28;20502;-90
2022/08/18 09:59:55;;;;;;;8.13;4.07;;;25.50;91.90;;;;;;5053292;28;20175;-90
2022/08/18 10:02:30;;;;;;;7.30;4.57;;;25.70;91.70;;;;;;5053118;28;20417;-90
2022/08/18 10:05:14;;;;;;;8.97;4.67;;;25.90;91.20;;;;;;5053104;28;20414;-89
2022/08/18 10:07:56;;;;;;;11.43;4.03;;;26.00;90.40;;;;;;5071327;28;20460;-90
2022/08/18 10:10:44;;;;;;;4.83;3.10;;;26.10;90.00;;;;;;5056426;28;20468;-90
2022/08/18 10:13:33;;;;;;;4.80;2.40;;;26.10;89.50;;;;;;5056547;28;20420;-90
2022/08/18 10:16:12;;;;;;;7.27;6.20;;;26.20;88.90;;;;;;5056102;28;20413;-90
2022/08/18 10:19:10;;;;;;;10.40;4.20;;;26.20;89.20;;;;;;5074357;28;20468;-90
2022/08/18 10:22:00;;;;;;;5.00;2.67;;;26.20;89.40;;;;;;5056214;28;20474;-87
2022/08/18 10:24:58;;;;;;;8.03;3.53;;;26.30;88.80;;;;;;5074069;28;20416;-87
2022/08/18 10:27:44;;;;;;;4.63;3.03;;;26.20;88.60;;;;;;5044118;28;20950;-87
2022/08/18 10:30:29;;;;;;;6.03;3.77;;;26.30;88.30;;;;;;5055933;28;20414;-88
2022/08/18 10:32:55;;;;;;;6.40;4.40;;;26.30;88.50;;;;;;5055625;28;20448;-87
2022/08/18 10:35:54;;;;;;;8.77;4.03;;;26.30;88.40;;;;;;5073821;28;20406;-87
2022/08/18 10:38:42;;;;;;;6.57;4.97;;;26.30;89.10;;;;;;5073596;28;20465;-87
2022/08/18 10:41:19;;;;;;;8.83;5.67;;;26.30;88.60;;;;;;5056022;28;20424;-87
2022/08/18 10:43:47;;;;;;;4.63;3.50;;;26.30;88.60;;;;;;5055742;28;20499;-87
2022/08/18 10:46:28;;;;;;;12.67;4.00;;;26.40;89.00;;;;;;5055393;28;20995;-87
2022/08/18 10:49:05;;;;;;;6.40;3.50;;;26.40;89.40;;;;;;5073329;28;20433;-88
2022/08/18 10:52:06;;;;;;;11.60;3.30;;;26.50;89.30;;;;;;5055620;28;20428;-88
2022/08/18 10:55:00;;;;;;;6.43;4.20;;;26.50;89.10;;;;;;5056189;28;20421;-88
2022/08/18 10:57:44;;;;;;;6.60;3.67;;;26.40;88.90;;;;;;5079358;28;20423;-87
2022/08/18 11:00:13;;;;;;;7.10;3.90;;;26.40;88.70;;;;;;5094864;28;20793;-88
2022/08/18 11:03:17;;;;;;;11.70;5.90;;;26.30;89.20;;;;;;5065294;28;20775;-88
2022/08/18 11:05:43;;;;;;;5.67;3.10;;;26.30;89.00;;;;;;5053690;28;20500;-88
2022/08/18 11:08:16;;;;;;;9.57;4.30;;;26.30;89.00;;;;;;5055504;28;20606;-88
2022/08/18 11:10:47;;;;;;;13.60;4.33;;;26.30;89.00;;;;;;5055565;28;20175;-87
2022/08/18 11:13:31;;;;;;;6.80;4.13;;;26.30;89.00;;;;;;5055217;28;20405;-87
2022/08/18 11:16:12;;;;;;;6.97;4.13;;;26.20;89.00;;;;;;5055259;28;20405;-87
2022/08/18 11:18:47;;;;;;;8.80;5.43;;;26.20;89.20;;;;;;5054972;28;20548;-87
2022/08/18 11:21:23;;;;;;;6.40;4.20;;;26.10;88.80;;;;;;5055162;28;20466;-88
2022/08/18 11:24:23;;;;;;;9.07;5.60;;;26.10;89.50;;;;;;5055286;28;20417;-87
2022/08/18 11:26:48;;;;;;;8.00;3.87;;;26.10;89.50;;;;;;5054850;28;20421;-87
2022/08/18 11:29:32;;;;;;;6.47;5.03;;;26.00;89.50;;;;;;5072544;28;20425;-88
2022/08/18 11:32:18;;;;;;;4.53;3.33;;;26.00;90.20;;;;;;5054639;28;20175;-88
2022/08/18 11:34:48;;;;;;;6.53;3.77;;;26.00;90.00;;;;;;5054929;28;20417;-88
2022/08/18 11:37:26;;;;;;;12.33;5.20;;;26.00;89.80;;;;;;5054836;28;20421;-87
2022/08/18 11:39:54;;;;;;;8.77;4.90;;;26.00;89.80;;;;;;5054768;28;20475;-89
2022/08/18 11:42:37;;;;;;;7.40;3.87;;;26.00;89.30;;;;;;5054922;28;20413;-87
2022/08/18 11:45:25;;;;;;;4.13;3.80;;;26.00;89.40;;;;;;5054726;28;20406;-87
2022/08/18 11:48:00;;;;;;;6.17;4.10;;;26.00;90.00;;;;;;5054329;28;20441;-87
2022/08/18 11:50:28;;;;;;;6.67;4.90;;;26.00;89.50;;;;;;5054949;28;20413;-87
2022/08/18 11:52:55;;;;;;;6.17;4.27;;;26.00;89.20;;;;;;5054792;28;20433;-87
2022/08/18 11:55:34;;;;;;;11.23;5.83;;;26.00;88.90;;;;;;5072381;28;20412;-87
2022/08/18 11:58:02;;;;;;;18.00;3.53;;;26.00;88.90;;;;;;5054236;28;20546;-87
2022/08/18 12:00:55;;;;;;;6.17;4.30;;;25.90;89.10;;;;;;5072418;28;20903;-87
2022/08/18 12:03:35;;;;;;;6.00;4.13;;;25.90;89.20;;;;;;5071073;28;20422;-87
2022/08/18 12:06:25;;;;;;;5.03;3.73;;;25.90;89.00;;;;;;5078705;28;20447;-87
2022/08/18 12:08:59;;;;;;;9.07;3.90;;;25.90;88.80;;;;;;5079037;28;20484;-87
2022/08/18 12:11:39;;;;;;;4.57;3.13;;;25.90;88.90;;;;;;5054372;28;20409;-87
2022/08/18 12:14:08;;;;;;;6.80;3.83;;;25.80;88.70;;;;;;5054220;28;20409;-87
2022/08/18 12:16:35;;;;;;;4.90;3.83;;;25.80;88.80;;;;;;5054255;28;20471;-87
2022/08/18 12:19:02;;;;;;;10.63;4.10;;;25.80;88.90;;;;;;5053611;28;20472;-87
2022/08/18 12:21:28;;;;;;;6.33;4.10;;;25.80;89.20;;;;;;5053922;28;20413;-87
2022/08/18 12:23:53;;;;;;;5.77;3.17;;;25.80;89.20;;;;;;5053573;28;20555;-87
2022/08/18 12:26:19;;;;;;;9.00;3.90;;;25.80;89.30;;;;;;5072508;28;20220;-88
2022/08/18 12:28:45;;;;;;;7.40;3.50;;;25.80;89.50;;;;;;5053839;28;20205;-87
2022/08/18 12:31:13;;;;;;;5.17;3.60;;;25.80;89.10;;;;;;5054115;28;20631;-87
2022/08/18 12:33:41;;;;;;;7.90;3.60;;;25.80;89.00;;;;;;5054116;28;20179;-87
2022/08/18 12:36:11;;;;;;;6.53;3.77;;;25.80;88.70;;;;;;5053472;28;20421;-87
2022/08/18 12:38:44;;;;;;;6.27;3.60;;;25.80;88.70;;;;;;5066671;28;20481;-88
2022/08/18 12:41:14;;;;;;;7.90;4.53;;;25.70;88.70;;;;;;5074208;28;20402;-87
2022/08/18 12:43:40;;;;;;;5.70;3.10;;;25.80;88.90;;;;;;5074151;28;20413;-87
2022/08/18 12:46:05;;;;;;;3.80;2.60;;;25.80;89.10;;;;;;5074387;28;20468;-87
2022/08/18 12:48:31;;;;;;;4.23;3.03;;;25.80;89.00;;;;;;5058690;28;20685;-88
2022/08/18 12:50:57;;;;;;;11.27;3.73;;;25.80;89.20;;;;;;5053910;28;20183;-87
2022/08/18 12:53:25;;;;;;;4.50;3.73;;;25.90;89.10;;;;;;5054449;28;20174;-87
2022/08/18 12:55:52;;;;;;;5.83;4.23;;;25.90;88.30;;;;;;5052095;28;20187;-87
2022/08/18 12:58:18;;;;;;;7.93;3.03;;;25.90;87.60;;;;;;5052813;28;21064;-88
2022/08/18 13:00:43;;;;;;;7.40;4.93;;;25.80;87.90;;;;;;5053845;28;20421;-87
2022/08/18 13:03:08;;;;;;;5.03;3.60;;;25.80;88.20;;;;;;5053269;28;20273;-86
2022/08/18 13:05:36;;;;;;;7.13;3.30;;;25.80;89.20;;;;;;5052420;28;20175;-87
2022/08/18 13:10:29;;;;;;;7.23;5.43;;;25.60;90.40;;;;;;5087217;28;20527;-85
2022/08/18 13:12:54;;;;;;;5.60;3.47;;;25.50;91.10;;;;;;5072246;28;20412;-85
2022/08/18 13:15:21;;;;;;;8.40;4.40;;;25.50;91.70;;;;;;5072575;28;20238;-85
2022/08/18 13:17:47;;;;;;;6.73;3.80;;;25.40;92.60;;;;;;5061004;28;20178;-84
2022/08/18 13:20:15;;;;;;;7.70;3.60;;;25.30;92.60;;;;;;5068351;28;20472;-85
2022/08/18 13:22:41;;;;;;;7.60;4.20;;;25.30;92.80;;;;;;5069317;28;20473;-85
2022/08/18 13:25:10;;;;;;;4.90;3.80;;;25.20;92.60;;;;;;5090920;28;20400;-85
2022/08/18 13:27:37;;;;;;;8.87;4.73;;;25.10;92.30;;;;;;5071566;28;20424;-85
2022/08/18 13:30:08;;;;;;;3.83;2.67;;;25.10;92.60;;;;;;5072130;28;20437;-85
2022/08/18 13:32:34;;;;;;;6.20;4.13;;;25.10;92.70;;;;;;5083222;28;20448;-84
2022/08/18 13:35:00;;;;;;;4.93;4.07;;;25.00;92.90;;;;;;5069281;28;20521;-85
2022/08/18 13:37:27;;;;;;;7.20;4.50;;;25.00;93.40;;;;;;5072466;28;20167;-85